sensor_id;sensor_type;location;lat;lon;timestamp;temperature;humidity
52211;DHT22;38179;52.756;6.906;2022-11-20T00:01:11;-2.10;99.90
52211;DHT22;38179;52.756;6.906;2022-11-20T00:03:37;-2.20;99.90
52211;DHT22;38179;52.756;6.906;2022-11-20T00:06:06;-2.20;99.90
52211;DHT22;38179;52.756;6.906;2022-11-20T00:08:32;-2.30;99.90
52211;DHT22;38179;52.756;6.906;2022-11-20T00:11:12;-2.20;99.90
52211;DHT22;38179;52.756;6.906;2022-11-20T00:13:39;-2.20;99.90
52211;DHT22;38179;52.756;6.906;2022-11-20T00:16:07;-2.10;99.90
52211;DHT22;38179;52.756;6.906;2022-11-20T00:18:34;-2.00;99.90
52211;DHT22;38179;52.756;6.906;2022-11-20T00:21:04;-1.90;99.90
52211;DHT22;38179;52.756;6.906;2022-11-20T00:23:31;-1.90;99.90
52211;DHT22;38179;52.756;6.906;2022-11-20T00:26:00;-1.80;99.90
52211;DHT22;38179;52.756;6.906;2022-11-20T00:28:26;-1.70;99.90
52211;DHT22;38179;52.756;6.906;2022-11-20T00:30:52;-1.70;99.90
52211;DHT22;38179;52.756;6.906;2022-11-20T00:33:18;-1.70;99.90
52211;DHT22;38179;52.756;6.906;2022-11-20T00:35:44;-1.60;99.90
52211;DHT22;38179;52.756;6.906;2022-11-20T00:38:10;-1.60;99.90
52211;DHT22;38179;52.756;6.906;2022-11-20T00:40:36;-1.60;99.90
52211;DHT22;38179;52.756;6.906;2022-11-20T00:43:01;-1.50;99.90
52211;DHT22;38179;52.756;6.906;2022-11-20T00:45:27;-1.50;99.90
52211;DHT22;38179;52.756;6.906;2022-11-20T00:47:53;-1.50;99.90
52211;DHT22;38179;52.756;6.906;2022-11-20T00:50:19;-1.50;99.90
52211;DHT22;38179;52.756;6.906;2022-11-20T00:52:45;-1.50;99.90
52211;DHT22;38179;52.756;6.906;2022-11-20T00:55:11;-1.40;99.90
52211;DHT22;38179;52.756;6.906;2022-11-20T00:57:37;-1.40;99.90
52211;DHT22;38179;52.756;6.906;2022-11-20T01:00:03;-1.40;99.90
52211;DHT22;38179;52.756;6.906;2022-11-20T01:02:29;-1.40;99.90
52211;DHT22;38179;52.756;6.906;2022-11-20T01:04:55;-1.30;99.90
52211;DHT22;38179;52.756;6.906;2022-11-20T01:07:21;-1.30;99.90
52211;DHT22;38179;52.756;6.906;2022-11-20T01:09:47;-1.40;99.90
52211;DHT22;38179;52.756;6.906;2022-11-20T01:12:13;-1.30;99.90
52211;DHT22;38179;52.756;6.906;2022-11-20T01:14:38;-1.30;99.90
52211;DHT22;38179;52.756;6.906;2022-11-20T01:17:04;-1.30;99.90
52211;DHT22;38179;52.756;6.906;2022-11-20T01:19:30;-1.30;99.90
52211;DHT22;38179;52.756;6.906;2022-11-20T01:21:56;-1.20;99.90
52211;DHT22;38179;52.756;6.906;2022-11-20T01:24:22;-1.20;99.90
52211;DHT22;38179;52.756;6.906;2022-11-20T01:26:50;-1.30;99.90
52211;DHT22;38179;52.756;6.906;2022-11-20T01:29:21;-1.30;99.90
52211;DHT22;38179;52.756;6.906;2022-11-20T01:31:48;-1.20;99.90
52211;DHT22;38179;52.756;6.906;2022-11-20T01:34:17;-1.20;99.90
52211;DHT22;38179;52.756;6.906;2022-11-20T01:36:44;-1.20;99.90
52211;DHT22;38179;52.756;6.906;2022-11-20T01:39:17;-1.20;99.90
52211;DHT22;38179;52.756;6.906;2022-11-20T01:41:44;-1.20;99.90
52211;DHT22;38179;52.756;6.906;2022-11-20T01:47:34;-1.20;99.90
52211;DHT22;38179;52.756;6.906;2022-11-20T01:50:23;-1.20;99.90
52211;DHT22;38179;52.756;6.906;2022-11-20T01:52:58;-1.20;99.90
52211;DHT22;38179;52.756;6.906;2022-11-20T01:55:29;-1.10;99.90
52211;DHT22;38179;52.756;6.906;2022-11-20T01:57:56;-1.20;99.90
52211;DHT22;38179;52.756;6.906;2022-11-20T02:00:23;-1.20;99.90
52211;DHT22;38179;52.756;6.906;2022-11-20T02:02:53;-1.10;99.90
52211;DHT22;38179;52.756;6.906;2022-11-20T02:05:32;-1.10;99.90
52211;DHT22;38179;52.756;6.906;2022-11-20T02:07:59;-1.10;99.90
52211;DHT22;38179;52.756;6.906;2022-11-20T02:10:27;-1.10;99.90
52211;DHT22;38179;52.756;6.906;2022-11-20T02:12:54;-1.20;99.90
52211;DHT22;38179;52.756;6.906;2022-11-20T02:15:38;-1.30;99.90
52211;DHT22;38179;52.756;6.906;2022-11-20T02:18:05;-1.30;99.90
52211;DHT22;38179;52.756;6.906;2022-11-20T02:20:32;-1.20;99.90
52211;DHT22;38179;52.756;6.906;2022-11-20T02:23:04;-1.20;99.90
52211;DHT22;38179;52.756;6.906;2022-11-20T02:25:32;-1.10;99.90
52211;DHT22;38179;52.756;6.906;2022-11-20T02:27:59;-1.10;99.90
52211;DHT22;38179;52.756;6.906;2022-11-20T02:30:25;-1.20;99.90
52211;DHT22;38179;52.756;6.906;2022-11-20T02:32:51;-1.20;99.90
52211;DHT22;38179;52.756;6.906;2022-11-20T02:37:48;-1.20;99.90
52211;DHT22;38179;52.756;6.906;2022-11-20T02:40:16;-1.20;99.90
52211;DHT22;38179;52.756;6.906;2022-11-20T02:42:42;-1.20;99.90
52211;DHT22;38179;52.756;6.906;2022-11-20T02:45:08;-1.20;99.90
52211;DHT22;38179;52.756;6.906;2022-11-20T02:47:34;-1.10;99.90
52211;DHT22;38179;52.756;6.906;2022-11-20T02:50:00;-1.10;99.90
52211;DHT22;38179;52.756;6.906;2022-11-20T02:52:26;-1.00;99.90
52211;DHT22;38179;52.756;6.906;2022-11-20T02:54:52;-1.10;99.90
52211;DHT22;38179;52.756;6.906;2022-11-20T02:57:18;-1.10;99.90
52211;DHT22;38179;52.756;6.906;2022-11-20T02:59:44;-1.10;99.90
52211;DHT22;38179;52.756;6.906;2022-11-20T03:02:10;-1.10;99.90
52211;DHT22;38179;52.756;6.906;2022-11-20T03:04:36;-1.00;99.90
52211;DHT22;38179;52.756;6.906;2022-11-20T03:07:02;-1.00;99.90
52211;DHT22;38179;52.756;6.906;2022-11-20T03:09:31;-1.00;99.90
52211;DHT22;38179;52.756;6.906;2022-11-20T03:11:57;-1.10;99.90
52211;DHT22;38179;52.756;6.906;2022-11-20T03:14:23;-1.10;99.90
52211;DHT22;38179;52.756;6.906;2022-11-20T03:16:49;-1.10;99.90
52211;DHT22;38179;52.756;6.906;2022-11-20T03:19:15;-1.00;99.90
52211;DHT22;38179;52.756;6.906;2022-11-20T03:21:41;-1.00;99.90
52211;DHT22;38179;52.756;6.906;2022-11-20T03:24:07;-1.00;99.90
52211;DHT22;38179;52.756;6.906;2022-11-20T03:26:33;-1.00;99.90
52211;DHT22;38179;52.756;6.906;2022-11-20T03:29:00;-1.00;99.90
52211;DHT22;38179;52.756;6.906;2022-11-20T03:31:29;-1.00;99.90
52211;DHT22;38179;52.756;6.906;2022-11-20T03:33:56;-0.90;99.90
52211;DHT22;38179;52.756;6.906;2022-11-20T03:36:23;-0.90;99.90
52211;DHT22;38179;52.756;6.906;2022-11-20T03:38:49;-0.90;99.90
52211;DHT22;38179;52.756;6.906;2022-11-20T03:41:23;-0.90;99.90
52211;DHT22;38179;52.756;6.906;2022-11-20T03:43:51;-0.90;99.90
52211;DHT22;38179;52.756;6.906;2022-11-20T03:46:18;-0.90;99.90
52211;DHT22;38179;52.756;6.906;2022-11-20T03:48:44;-0.90;99.90
52211;DHT22;38179;52.756;6.906;2022-11-20T03:51:15;-1.00;99.90
52211;DHT22;38179;52.756;6.906;2022-11-20T03:53:44;-1.00;99.90
52211;DHT22;38179;52.756;6.906;2022-11-20T03:56:11;-1.00;99.90
52211;DHT22;38179;52.756;6.906;2022-11-20T03:58:38;-0.90;99.90
52211;DHT22;38179;52.756;6.906;2022-11-20T04:01:07;-0.90;99.90
52211;DHT22;38179;52.756;6.906;2022-11-20T04:03:34;-0.90;99.90
52211;DHT22;38179;52.756;6.906;2022-11-20T04:06:21;-0.90;99.90
52211;DHT22;38179;52.756;6.906;2022-11-20T04:08:48;-0.90;99.90
52211;DHT22;38179;52.756;6.906;2022-11-20T04:11:19;-1.00;99.90
52211;DHT22;38179;52.756;6.906;2022-11-20T04:13:51;-1.00;99.90
52211;DHT22;38179;52.756;6.906;2022-11-20T04:16:17;-1.00;99.90
52211;DHT22;38179;52.756;6.906;2022-11-20T04:18:44;-0.90;99.90
52211;DHT22;38179;52.756;6.906;2022-11-20T04:21:10;-0.90;99.90
52211;DHT22;38179;52.756;6.906;2022-11-20T04:23:36;-0.80;99.90
52211;DHT22;38179;52.756;6.906;2022-11-20T04:26:08;-0.80;99.90
52211;DHT22;38179;52.756;6.906;2022-11-20T04:28:34;-0.80;99.90
52211;DHT22;38179;52.756;6.906;2022-11-20T04:31:08;-0.80;99.90
52211;DHT22;38179;52.756;6.906;2022-11-20T04:33:38;-0.80;99.90
52211;DHT22;38179;52.756;6.906;2022-11-20T04:36:04;-0.80;99.90
52211;DHT22;38179;52.756;6.906;2022-11-20T04:38:31;-0.80;99.90
52211;DHT22;38179;52.756;6.906;2022-11-20T04:41:01;-0.80;99.90
52211;DHT22;38179;52.756;6.906;2022-11-20T04:43:27;-0.70;99.90
52211;DHT22;38179;52.756;6.906;2022-11-20T04:45:54;-0.70;99.90
52211;DHT22;38179;52.756;6.906;2022-11-20T04:48:21;-0.70;99.90
52211;DHT22;38179;52.756;6.906;2022-11-20T04:50:47;-0.70;99.90
52211;DHT22;38179;52.756;6.906;2022-11-20T04:53:14;-0.70;99.90
52211;DHT22;38179;52.756;6.906;2022-11-20T04:55:40;-0.70;99.90
52211;DHT22;38179;52.756;6.906;2022-11-20T04:58:06;-0.70;99.90
52211;DHT22;38179;52.756;6.906;2022-11-20T05:00:32;-0.70;99.90
52211;DHT22;38179;52.756;6.906;2022-11-20T05:02:58;-0.70;99.90
52211;DHT22;38179;52.756;6.906;2022-11-20T05:05:24;-0.80;99.90
52211;DHT22;38179;52.756;6.906;2022-11-20T05:07:50;-0.70;99.90
52211;DHT22;38179;52.756;6.906;2022-11-20T05:10:16;-0.70;99.90
52211;DHT22;38179;52.756;6.906;2022-11-20T05:12:42;-0.70;99.90
52211;DHT22;38179;52.756;6.906;2022-11-20T05:15:08;-0.70;99.90
52211;DHT22;38179;52.756;6.906;2022-11-20T05:17:34;-0.70;99.90
52211;DHT22;38179;52.756;6.906;2022-11-20T05:20:00;-0.70;99.90
52211;DHT22;38179;52.756;6.906;2022-11-20T05:22:26;-0.80;99.90
52211;DHT22;38179;52.756;6.906;2022-11-20T05:24:52;-0.80;99.90
52211;DHT22;38179;52.756;6.906;2022-11-20T05:27:18;-0.80;99.90
52211;DHT22;38179;52.756;6.906;2022-11-20T05:29:44;-0.80;99.90
52211;DHT22;38179;52.756;6.906;2022-11-20T05:32:10;-0.70;99.90
52211;DHT22;38179;52.756;6.906;2022-11-20T05:34:36;-0.80;99.90
52211;DHT22;38179;52.756;6.906;2022-11-20T05:37:02;-0.80;99.90
52211;DHT22;38179;52.756;6.906;2022-11-20T05:39:28;-0.80;99.90
52211;DHT22;38179;52.756;6.906;2022-11-20T05:41:54;-0.80;99.90
52211;DHT22;38179;52.756;6.906;2022-11-20T05:44:39;-0.80;99.90
52211;DHT22;38179;52.756;6.906;2022-11-20T05:47:05;-0.70;99.90
52211;DHT22;38179;52.756;6.906;2022-11-20T05:49:31;-0.70;99.90
52211;DHT22;38179;52.756;6.906;2022-11-20T05:51:57;-0.70;99.90
52211;DHT22;38179;52.756;6.906;2022-11-20T05:54:24;-0.60;99.90
52211;DHT22;38179;52.756;6.906;2022-11-20T05:56:49;-0.60;99.90
52211;DHT22;38179;52.756;6.906;2022-11-20T05:59:15;-0.60;99.90
52211;DHT22;38179;52.756;6.906;2022-11-20T06:01:41;-0.70;99.90
52211;DHT22;38179;52.756;6.906;2022-11-20T06:04:07;-0.70;99.90
52211;DHT22;38179;52.756;6.906;2022-11-20T06:06:33;-0.70;99.90
52211;DHT22;38179;52.756;6.906;2022-11-20T06:08:59;-0.70;99.90
52211;DHT22;38179;52.756;6.906;2022-11-20T06:11:25;-0.70;99.90
52211;DHT22;38179;52.756;6.906;2022-11-20T06:13:51;-0.70;99.90
52211;DHT22;38179;52.756;6.906;2022-11-20T06:16:19;-0.70;99.90
52211;DHT22;38179;52.756;6.906;2022-11-20T06:18:46;-0.70;99.90
52211;DHT22;38179;52.756;6.906;2022-11-20T06:21:15;-0.70;99.90
52211;DHT22;38179;52.756;6.906;2022-11-20T06:23:41;-0.60;99.90
52211;DHT22;38179;52.756;6.906;2022-11-20T06:26:16;-0.70;99.90
52211;DHT22;38179;52.756;6.906;2022-11-20T06:28:42;-0.70;99.90
52211;DHT22;38179;52.756;6.906;2022-11-20T06:31:11;-0.70;99.90
52211;DHT22;38179;52.756;6.906;2022-11-20T06:33:37;-0.60;99.90
52211;DHT22;38179;52.756;6.906;2022-11-20T06:36:03;-0.60;99.90
52211;DHT22;38179;52.756;6.906;2022-11-20T06:38:29;-0.60;99.90
52211;DHT22;38179;52.756;6.906;2022-11-20T06:40:55;-0.70;99.90
52211;DHT22;38179;52.756;6.906;2022-11-20T06:43:22;-0.70;99.90
52211;DHT22;38179;52.756;6.906;2022-11-20T06:45:54;-0.80;99.90
52211;DHT22;38179;52.756;6.906;2022-11-20T06:48:21;-0.80;99.90
52211;DHT22;38179;52.756;6.906;2022-11-20T06:50:47;-0.80;99.90
52211;DHT22;38179;52.756;6.906;2022-11-20T06:53:13;-0.80;99.90
52211;DHT22;38179;52.756;6.906;2022-11-20T06:55:44;-0.80;99.90
52211;DHT22;38179;52.756;6.906;2022-11-20T06:58:10;-0.80;99.90
52211;DHT22;38179;52.756;6.906;2022-11-20T07:00:36;-0.90;99.90
52211;DHT22;38179;52.756;6.906;2022-11-20T07:03:06;-0.90;99.90
52211;DHT22;38179;52.756;6.906;2022-11-20T07:05:32;-0.90;99.90
52211;DHT22;38179;52.756;6.906;2022-11-20T07:07:58;-0.80;99.90
52211;DHT22;38179;52.756;6.906;2022-11-20T07:10:25;-0.80;99.90
52211;DHT22;38179;52.756;6.906;2022-11-20T07:12:52;-0.80;99.90
52211;DHT22;38179;52.756;6.906;2022-11-20T07:15:20;-0.80;99.90
52211;DHT22;38179;52.756;6.906;2022-11-20T07:17:46;-0.70;99.90
52211;DHT22;38179;52.756;6.906;2022-11-20T07:20:15;-0.70;99.90
52211;DHT22;38179;52.756;6.906;2022-11-20T07:22:42;-0.60;99.90
52211;DHT22;38179;52.756;6.906;2022-11-20T07:25:09;-0.70;99.90
52211;DHT22;38179;52.756;6.906;2022-11-20T07:27:35;-0.60;99.90
52211;DHT22;38179;52.756;6.906;2022-11-20T07:30:03;-0.60;99.90
52211;DHT22;38179;52.756;6.906;2022-11-20T07:32:29;-0.60;99.90
52211;DHT22;38179;52.756;6.906;2022-11-20T07:34:55;-0.70;99.90
52211;DHT22;38179;52.756;6.906;2022-11-20T07:37:21;-0.70;99.90
52211;DHT22;38179;52.756;6.906;2022-11-20T07:39:47;-0.70;99.90
52211;DHT22;38179;52.756;6.906;2022-11-20T07:42:13;-0.70;99.90
52211;DHT22;38179;52.756;6.906;2022-11-20T07:44:39;-0.70;99.90
52211;DHT22;38179;52.756;6.906;2022-11-20T07:47:05;-0.60;99.90
52211;DHT22;38179;52.756;6.906;2022-11-20T07:49:31;-0.60;99.90
52211;DHT22;38179;52.756;6.906;2022-11-20T07:51:57;-0.60;99.90
52211;DHT22;38179;52.756;6.906;2022-11-20T07:54:23;-0.60;99.90
52211;DHT22;38179;52.756;6.906;2022-11-20T07:56:49;-0.60;99.90
52211;DHT22;38179;52.756;6.906;2022-11-20T07:59:15;-0.60;99.90
52211;DHT22;38179;52.756;6.906;2022-11-20T08:01:42;-0.60;99.90
52211;DHT22;38179;52.756;6.906;2022-11-20T08:04:08;-0.60;99.90
52211;DHT22;38179;52.756;6.906;2022-11-20T08:06:35;-0.70;99.90
52211;DHT22;38179;52.756;6.906;2022-11-20T08:09:02;-0.60;99.90
52211;DHT22;38179;52.756;6.906;2022-11-20T08:11:28;-0.60;99.90
52211;DHT22;38179;52.756;6.906;2022-11-20T08:14:12;-0.50;99.90
52211;DHT22;38179;52.756;6.906;2022-11-20T08:16:43;-0.50;99.90
52211;DHT22;38179;52.756;6.906;2022-11-20T08:19:11;-0.50;99.90
52211;DHT22;38179;52.756;6.906;2022-11-20T08:21:38;-0.60;99.90
52211;DHT22;38179;52.756;6.906;2022-11-20T08:24:04;-0.70;99.90
52211;DHT22;38179;52.756;6.906;2022-11-20T08:26:30;-0.80;99.90
52211;DHT22;38179;52.756;6.906;2022-11-20T08:28:57;-0.80;99.90
52211;DHT22;38179;52.756;6.906;2022-11-20T08:31:24;-0.80;99.90
52211;DHT22;38179;52.756;6.906;2022-11-20T08:33:51;-0.80;99.90
52211;DHT22;38179;52.756;6.906;2022-11-20T08:36:18;-0.90;99.90
52211;DHT22;38179;52.756;6.906;2022-11-20T08:38:48;-0.90;99.90
52211;DHT22;38179;52.756;6.906;2022-11-20T08:41:14;-0.80;99.90
52211;DHT22;38179;52.756;6.906;2022-11-20T08:43:51;-0.90;99.90
52211;DHT22;38179;52.756;6.906;2022-11-20T08:46:17;-0.80;99.90
52211;DHT22;38179;52.756;6.906;2022-11-20T08:48:44;-0.80;99.90
52211;DHT22;38179;52.756;6.906;2022-11-20T08:51:10;-0.80;99.90
52211;DHT22;38179;52.756;6.906;2022-11-20T08:53:37;-0.80;99.90
52211;DHT22;38179;52.756;6.906;2022-11-20T08:56:03;-0.80;99.90
52211;DHT22;38179;52.756;6.906;2022-11-20T08:58:29;-0.70;99.90
52211;DHT22;38179;52.756;6.906;2022-11-20T09:00:55;-0.60;99.90
52211;DHT22;38179;52.756;6.906;2022-11-20T09:03:21;-0.50;99.90
52211;DHT22;38179;52.756;6.906;2022-11-20T09:05:46;-0.50;99.90
52211;DHT22;38179;52.756;6.906;2022-11-20T09:08:12;-0.50;99.90
52211;DHT22;38179;52.756;6.906;2022-11-20T09:10:38;-0.50;99.90
52211;DHT22;38179;52.756;6.906;2022-11-20T09:13:07;-0.50;99.90
52211;DHT22;38179;52.756;6.906;2022-11-20T09:15:33;-0.40;99.90
52211;DHT22;38179;52.756;6.906;2022-11-20T09:18:03;-0.40;99.90
52211;DHT22;38179;52.756;6.906;2022-11-20T09:20:30;-0.40;99.90
52211;DHT22;38179;52.756;6.906;2022-11-20T09:22:57;-0.40;99.90
52211;DHT22;38179;52.756;6.906;2022-11-20T09:25:23;-0.40;99.90
52211;DHT22;38179;52.756;6.906;2022-11-20T09:27:55;-0.40;99.90
52211;DHT22;38179;52.756;6.906;2022-11-20T09:30:21;-0.40;99.90
52211;DHT22;38179;52.756;6.906;2022-11-20T09:32:46;-0.40;99.90
52211;DHT22;38179;52.756;6.906;2022-11-20T09:35:12;-0.30;99.90
52211;DHT22;38179;52.756;6.906;2022-11-20T09:37:40;-0.30;99.90
52211;DHT22;38179;52.756;6.906;2022-11-20T09:40:08;-0.20;99.90
52211;DHT22;38179;52.756;6.906;2022-11-20T09:43:10;-0.20;99.90
52211;DHT22;38179;52.756;6.906;2022-11-20T09:45:54;-0.10;99.90
52211;DHT22;38179;52.756;6.906;2022-11-20T09:56:20;0.00;99.90
52211;DHT22;38179;52.756;6.906;2022-11-20T09:58:55;0.10;99.90
52211;DHT22;38179;52.756;6.906;2022-11-20T10:01:36;0.00;99.90
52211;DHT22;38179;52.756;6.906;2022-11-20T10:04:14;0.10;99.90
52211;DHT22;38179;52.756;6.906;2022-11-20T10:14:38;0.30;99.90
52211;DHT22;38179;52.756;6.906;2022-11-20T10:31:38;0.70;99.90
52211;DHT22;38179;52.756;6.906;2022-11-20T10:34:22;0.80;99.90
52211;DHT22;38179;52.756;6.906;2022-11-20T10:36:54;0.90;99.90
52211;DHT22;38179;52.756;6.906;2022-11-20T10:39:35;0.90;99.90
52211;DHT22;38179;52.756;6.906;2022-11-20T10:42:10;1.00;99.90
52211;DHT22;38179;52.756;6.906;2022-11-20T10:44:36;1.10;99.90
52211;DHT22;38179;52.756;6.906;2022-11-20T10:47:25;1.10;99.90
52211;DHT22;38179;52.756;6.906;2022-11-20T10:49:56;1.20;99.90
52211;DHT22;38179;52.756;6.906;2022-11-20T10:52:42;1.20;99.90
52211;DHT22;38179;52.756;6.906;2022-11-20T10:55:30;1.20;99.90
52211;DHT22;38179;52.756;6.906;2022-11-20T11:00:24;1.30;99.90
52211;DHT22;38179;52.756;6.906;2022-11-20T11:02:50;1.30;99.90
52211;DHT22;38179;52.756;6.906;2022-11-20T11:07:47;1.30;99.90
52211;DHT22;38179;52.756;6.906;2022-11-20T11:10:39;1.30;99.90
52211;DHT22;38179;52.756;6.906;2022-11-20T11:13:08;1.20;99.90
52211;DHT22;38179;52.756;6.906;2022-11-20T11:15:44;1.30;99.90
52211;DHT22;38179;52.756;6.906;2022-11-20T11:18:11;1.20;99.90
52211;DHT22;38179;52.756;6.906;2022-11-20T11:20:37;1.20;99.90
52211;DHT22;38179;52.756;6.906;2022-11-20T11:23:03;1.20;99.90
52211;DHT22;38179;52.756;6.906;2022-11-20T11:25:35;1.20;99.90
52211;DHT22;38179;52.756;6.906;2022-11-20T11:28:17;1.10;99.90
52211;DHT22;38179;52.756;6.906;2022-11-20T11:30:46;1.20;99.90
52211;DHT22;38179;52.756;6.906;2022-11-20T11:33:22;1.20;99.90
52211;DHT22;38179;52.756;6.906;2022-11-20T11:35:53;1.20;99.90
52211;DHT22;38179;52.756;6.906;2022-11-20T11:38:26;1.20;99.90
52211;DHT22;38179;52.756;6.906;2022-11-20T11:40:54;1.20;99.90
52211;DHT22;38179;52.756;6.906;2022-11-20T11:43:33;1.20;99.90
52211;DHT22;38179;52.756;6.906;2022-11-20T11:48:57;1.20;99.90
52211;DHT22;38179;52.756;6.906;2022-11-20T11:51:32;1.20;99.90
52211;DHT22;38179;52.756;6.906;2022-11-20T11:53:58;1.20;99.90
52211;DHT22;38179;52.756;6.906;2022-11-20T11:56:26;1.20;99.90
52211;DHT22;38179;52.756;6.906;2022-11-20T11:58:57;1.30;99.90
52211;DHT22;38179;52.756;6.906;2022-11-20T12:01:32;1.30;99.90
52211;DHT22;38179;52.756;6.906;2022-11-20T12:06:29;1.40;99.90
52211;DHT22;38179;52.756;6.906;2022-11-20T12:09:07;1.40;99.90
52211;DHT22;38179;52.756;6.906;2022-11-20T12:11:38;1.50;99.90
52211;DHT22;38179;52.756;6.906;2022-11-20T12:14:18;1.60;99.90
52211;DHT22;38179;52.756;6.906;2022-11-20T12:16:50;1.60;99.90
52211;DHT22;38179;52.756;6.906;2022-11-20T12:19:18;1.80;99.90
52211;DHT22;38179;52.756;6.906;2022-11-20T12:24:42;2.10;99.90
52211;DHT22;38179;52.756;6.906;2022-11-20T12:27:29;2.20;99.90
52211;DHT22;38179;52.756;6.906;2022-11-20T12:30:10;2.20;99.90
52211;DHT22;38179;52.756;6.906;2022-11-20T12:36:00;2.50;99.90
52211;DHT22;38179;52.756;6.906;2022-11-20T12:43:36;2.40;99.90
52211;DHT22;38179;52.756;6.906;2022-11-20T12:46:50;2.30;99.90
52211;DHT22;38179;52.756;6.906;2022-11-20T12:52:32;2.10;99.90
52211;DHT22;38179;52.756;6.906;2022-11-20T13:00:21;2.00;99.90
52211;DHT22;38179;52.756;6.906;2022-11-20T13:03:11;1.90;99.90
52211;DHT22;38179;52.756;6.906;2022-11-20T13:08:20;1.90;99.90
52211;DHT22;38179;52.756;6.906;2022-11-20T13:11:24;1.90;99.90
52211;DHT22;38179;52.756;6.906;2022-11-20T13:19:04;1.80;99.90
52211;DHT22;38179;52.756;6.906;2022-11-20T13:21:48;1.70;99.90
52211;DHT22;38179;52.756;6.906;2022-11-20T13:29:42;1.60;99.90
52211;DHT22;38179;52.756;6.906;2022-11-20T13:32:20;1.60;99.90
52211;DHT22;38179;52.756;6.906;2022-11-20T13:34:54;1.60;99.90
52211;DHT22;38179;52.756;6.906;2022-11-20T13:37:35;1.60;99.90
52211;DHT22;38179;52.756;6.906;2022-11-20T13:45:31;1.60;99.90
52211;DHT22;38179;52.756;6.906;2022-11-20T13:48:04;1.60;99.90
52211;DHT22;38179;52.756;6.906;2022-11-20T13:56:02;1.50;99.90
52211;DHT22;38179;52.756;6.906;2022-11-20T14:01:26;1.40;99.90
52211;DHT22;38179;52.756;6.906;2022-11-20T14:03:55;1.50;99.90
52211;DHT22;38179;52.756;6.906;2022-11-20T14:06:27;1.40;99.90
52211;DHT22;38179;52.756;6.906;2022-11-20T14:08:55;1.40;99.90
52211;DHT22;38179;52.756;6.906;2022-11-20T14:11:22;1.50;99.90
52211;DHT22;38179;52.756;6.906;2022-11-20T14:16:37;1.50;99.90
52211;DHT22;38179;52.756;6.906;2022-11-20T14:21:48;1.50;99.90
52211;DHT22;38179;52.756;6.906;2022-11-20T14:24:19;1.50;99.90
52211;DHT22;38179;52.756;6.906;2022-11-20T14:26:46;1.50;99.90
52211;DHT22;38179;52.756;6.906;2022-11-20T14:29:18;1.50;99.90
52211;DHT22;38179;52.756;6.906;2022-11-20T14:31:46;1.50;99.90
52211;DHT22;38179;52.756;6.906;2022-11-20T14:34:16;1.50;99.90
52211;DHT22;38179;52.756;6.906;2022-11-20T14:36:43;1.50;99.90
52211;DHT22;38179;52.756;6.906;2022-11-20T14:39:29;1.40;99.90
52211;DHT22;38179;52.756;6.906;2022-11-20T14:41:56;1.40;99.90
52211;DHT22;38179;52.756;6.906;2022-11-20T14:44:32;1.40;99.90
52211;DHT22;38179;52.756;6.906;2022-11-20T14:47:00;1.40;99.90
52211;DHT22;38179;52.756;6.906;2022-11-20T14:49:30;1.40;99.90
52211;DHT22;38179;52.756;6.906;2022-11-20T14:52:17;1.40;99.90
52211;DHT22;38179;52.756;6.906;2022-11-20T14:54:51;1.40;99.90
52211;DHT22;38179;52.756;6.906;2022-11-20T14:57:29;1.40;99.90
52211;DHT22;38179;52.756;6.906;2022-11-20T15:02:44;2.90;99.90
52211;DHT22;38179;52.756;6.906;2022-11-20T15:05:10;1.40;99.90
52211;DHT22;38179;52.756;6.906;2022-11-20T15:07:39;1.40;99.90
52211;DHT22;38179;52.756;6.906;2022-11-20T15:10:27;1.30;99.90
52211;DHT22;38179;52.756;6.906;2022-11-20T15:12:55;1.30;99.90
52211;DHT22;38179;52.756;6.906;2022-11-20T15:18:20;1.30;99.90
52211;DHT22;38179;52.756;6.906;2022-11-20T15:20:47;1.30;99.90
52211;DHT22;38179;52.756;6.906;2022-11-20T15:23:15;1.30;99.90
52211;DHT22;38179;52.756;6.906;2022-11-20T15:25:44;1.30;99.90
52211;DHT22;38179;52.756;6.906;2022-11-20T15:28:40;1.30;99.90
52211;DHT22;38179;52.756;6.906;2022-11-20T15:31:08;1.30;99.90
52211;DHT22;38179;52.756;6.906;2022-11-20T15:33:36;1.30;99.90
52211;DHT22;38179;52.756;6.906;2022-11-20T15:36:02;1.30;99.90
52211;DHT22;38179;52.756;6.906;2022-11-20T15:38:28;1.30;99.90
52211;DHT22;38179;52.756;6.906;2022-11-20T15:40:54;1.30;99.90
52211;DHT22;38179;52.756;6.906;2022-11-20T15:43:20;1.30;99.90
52211;DHT22;38179;52.756;6.906;2022-11-20T15:50:54;1.30;99.90
52211;DHT22;38179;52.756;6.906;2022-11-20T15:53:22;1.30;99.90
52211;DHT22;38179;52.756;6.906;2022-11-20T15:55:48;1.20;99.90
52211;DHT22;38179;52.756;6.906;2022-11-20T15:58:14;1.30;99.90
52211;DHT22;38179;52.756;6.906;2022-11-20T16:00:42;1.20;99.90
52211;DHT22;38179;52.756;6.906;2022-11-20T16:03:12;1.20;99.90
52211;DHT22;38179;52.756;6.906;2022-11-20T16:05:39;1.20;99.90
52211;DHT22;38179;52.756;6.906;2022-11-20T16:08:05;1.20;99.90
52211;DHT22;38179;52.756;6.906;2022-11-20T16:10:31;1.20;99.90
52211;DHT22;38179;52.756;6.906;2022-11-20T16:12:57;1.20;99.90
52211;DHT22;38179;52.756;6.906;2022-11-20T16:15:43;1.10;99.90
52211;DHT22;38179;52.756;6.906;2022-11-20T16:18:12;1.10;99.90
52211;DHT22;38179;52.756;6.906;2022-11-20T16:20:38;1.10;99.90
52211;DHT22;38179;52.756;6.906;2022-11-20T16:23:05;1.10;99.90
52211;DHT22;38179;52.756;6.906;2022-11-20T16:25:32;1.10;99.90
52211;DHT22;38179;52.756;6.906;2022-11-20T16:27:58;1.10;99.90
52211;DHT22;38179;52.756;6.906;2022-11-20T16:30:24;1.10;99.90
52211;DHT22;38179;52.756;6.906;2022-11-20T16:32:51;1.10;99.90
52211;DHT22;38179;52.756;6.906;2022-11-20T16:35:17;1.10;99.90
52211;DHT22;38179;52.756;6.906;2022-11-20T16:37:43;1.10;99.90
52211;DHT22;38179;52.756;6.906;2022-11-20T16:40:10;1.10;99.90
52211;DHT22;38179;52.756;6.906;2022-11-20T16:42:37;1.10;99.90
52211;DHT22;38179;52.756;6.906;2022-11-20T16:45:04;1.00;99.90
52211;DHT22;38179;52.756;6.906;2022-11-20T16:47:36;1.00;99.90
52211;DHT22;38179;52.756;6.906;2022-11-20T16:50:04;1.00;99.90
52211;DHT22;38179;52.756;6.906;2022-11-20T16:52:30;1.10;99.90
52211;DHT22;38179;52.756;6.906;2022-11-20T16:54:57;1.00;99.90
52211;DHT22;38179;52.756;6.906;2022-11-20T16:57:24;1.10;99.90
52211;DHT22;38179;52.756;6.906;2022-11-20T16:59:52;1.10;99.90
52211;DHT22;38179;52.756;6.906;2022-11-20T17:02:18;1.00;99.90
52211;DHT22;38179;52.756;6.906;2022-11-20T17:04:45;1.00;99.90
52211;DHT22;38179;52.756;6.906;2022-11-20T17:07:11;1.00;99.90
52211;DHT22;38179;52.756;6.906;2022-11-20T17:09:38;1.00;99.90
52211;DHT22;38179;52.756;6.906;2022-11-20T17:12:04;1.00;99.90
52211;DHT22;38179;52.756;6.906;2022-11-20T17:14:34;1.00;99.90
52211;DHT22;38179;52.756;6.906;2022-11-20T17:17:01;1.00;99.90
52211;DHT22;38179;52.756;6.906;2022-11-20T17:19:27;1.10;99.90
52211;DHT22;38179;52.756;6.906;2022-11-20T17:21:53;1.00;99.90
52211;DHT22;38179;52.756;6.906;2022-11-20T17:24:20;1.10;99.90
52211;DHT22;38179;52.756;6.906;2022-11-20T17:26:47;1.10;99.90
52211;DHT22;38179;52.756;6.906;2022-11-20T17:29:16;1.10;99.90
52211;DHT22;38179;52.756;6.906;2022-11-20T17:31:42;1.10;99.90
52211;DHT22;38179;52.756;6.906;2022-11-20T17:34:13;1.10;99.90
52211;DHT22;38179;52.756;6.906;2022-11-20T17:36:41;1.10;99.90
52211;DHT22;38179;52.756;6.906;2022-11-20T17:39:16;1.10;99.90